createdAt,value
2017-07-22T00:00:33.711Z,73.90
2017-07-22T00:03:01.982Z,75.80
2017-07-22T00:05:30.307Z,75.00
2017-07-22T00:07:59.711Z,76.30
2017-07-22T00:10:27.999Z,76.60
2017-07-22T00:12:56.326Z,76.50
2017-07-22T00:15:26.099Z,75.20
2017-07-22T00:17:54.362Z,76.80
2017-07-22T00:22:52.968Z,75.80
2017-07-22T00:27:51.558Z,76.80
2017-07-22T00:30:19.830Z,75.90
2017-07-22T00:32:48.870Z,74.40
2017-07-22T00:37:47.091Z,76.00
2017-07-22T00:40:15.363Z,75.50
2017-07-22T00:42:43.720Z,75.60
2017-07-22T00:45:13.135Z,76.20
2017-07-22T00:47:41.444Z,75.60
2017-07-22T00:50:09.782Z,77.00
2017-07-22T00:55:07.977Z,78.50
2017-07-22T00:57:36.315Z,78.70
2017-07-22T01:00:04.592Z,77.60
2017-07-22T01:05:03.175Z,77.50
2017-07-22T01:07:33.690Z,76.60
2017-07-22T01:10:02.358Z,78.80
2017-07-22T01:12:30.704Z,77.60
2017-07-22T01:14:58.978Z,76.70
2017-07-22T01:22:27.128Z,78.10
2017-07-22T01:27:25.370Z,77.00
2017-07-22T01:29:53.639Z,76.30
2017-07-22T01:32:21.906Z,76.80
2017-07-22T01:34:51.803Z,79.00
2017-07-22T01:37:20.091Z,77.40
2017-07-22T01:42:18.314Z,76.90
2017-07-22T01:47:16.845Z,75.20
2017-07-22T01:52:16.178Z,75.40
2017-07-22T01:54:44.462Z,76.10
2017-07-22T01:57:12.816Z,76.70
2017-07-22T01:59:42.620Z,77.30
2017-07-22T02:02:10.911Z,77.90
2017-07-22T02:04:39.272Z,78.30
2017-07-22T02:09:39.040Z,79.70
2017-07-22T02:12:07.358Z,80.20
2017-07-22T02:14:36.390Z,81.50
2017-07-22T02:17:06.204Z,81.50
2017-07-22T02:19:34.519Z,81.80
2017-07-22T02:24:32.338Z,82.50
2017-07-22T02:29:30.931Z,83.20
2017-07-22T02:34:29.189Z,83.80
2017-07-22T02:36:58.254Z,83.90
2017-07-22T02:39:26.570Z,83.80
2017-07-22T02:41:56.398Z,84.10
2017-07-22T02:46:54.983Z,85.50
2017-07-22T02:49:23.310Z,86.50
2017-07-22T02:51:51.635Z,86.90
2017-07-22T02:54:19.926Z,87.20
2017-07-22T02:56:48.255Z,87.70
2017-07-22T03:04:16.022Z,88.50
2017-07-22T03:06:44.358Z,88.70
2017-07-22T03:11:42.603Z,89.10
2017-07-22T03:19:10.422Z,90.10
2017-07-22T03:24:08.283Z,90.50
2017-07-22T03:26:36.620Z,90.50
2017-07-22T03:29:04.943Z,90.60
2017-07-22T03:31:33.226Z,90.90
2017-07-22T03:34:01.559Z,91.10
2017-07-22T03:36:31.010Z,91.60
2017-07-22T03:38:59.302Z,91.80
2017-07-22T03:43:57.973Z,92.00
2017-07-22T03:48:56.186Z,92.20
2017-07-22T03:51:26.528Z,91.90
2017-07-22T03:53:54.803Z,91.90
2017-07-22T03:58:53.034Z,91.90
2017-07-22T04:01:22.078Z,91.80
2017-07-22T04:03:50.390Z,91.70
2017-07-22T04:08:48.595Z,91.80
2017-07-22T04:11:16.908Z,91.90
2017-07-22T04:13:45.202Z,92.00
2017-07-22T04:16:14.622Z,92.10
2017-07-22T04:18:43.350Z,92.20
2017-07-22T04:23:41.226Z,92.20
2017-07-22T04:28:39.869Z,92.40
2017-07-22T04:31:08.174Z,92.30
2017-07-22T04:33:36.498Z,92.20
2017-07-22T04:38:34.702Z,92.20
2017-07-22T04:41:03.782Z,92.20
2017-07-22T04:46:02.363Z,92.10
2017-07-22T04:48:30.671Z,92.10
2017-07-22T04:51:00.479Z,92.10
2017-07-22T04:55:58.702Z,92.20
2017-07-22T04:58:27.021Z,92.30
2017-07-22T05:00:55.303Z,92.20
2017-07-22T05:03:25.120Z,92.30
2017-07-22T05:08:24.037Z,92.20
2017-07-22T05:10:53.845Z,92.20
2017-07-22T05:13:22.155Z,92.20
2017-07-22T05:15:50.430Z,92.10
2017-07-22T05:20:48.658Z,92.10
2017-07-22T05:23:16.935Z,92.20
2017-07-22T05:28:15.910Z,92.30
2017-07-22T05:30:44.594Z,92.30
2017-07-22T05:33:12.919Z,92.20
2017-07-22T05:38:10.736Z,91.70
2017-07-22T05:40:40.581Z,91.50
2017-07-22T05:43:08.899Z,90.90
2017-07-22T05:48:07.490Z,90.20
2017-07-22T05:50:35.791Z,88.20
2017-07-22T05:53:04.063Z,85.30
2017-07-22T05:55:33.882Z,83.20
2017-07-22T05:58:02.191Z,80.50
2017-07-22T06:00:30.463Z,77.50
2017-07-22T06:02:59.551Z,75.60
2017-07-22T06:05:27.878Z,77.10
2017-07-22T06:07:56.158Z,77.30
2017-07-22T06:10:25.971Z,77.70
2017-07-22T06:12:54.294Z,77.90
2017-07-22T06:15:22.567Z,79.70
2017-07-22T06:20:20.409Z,80.60
2017-07-22T06:22:48.674Z,78.30
2017-07-22T06:25:16.977Z,78.00
2017-07-22T06:30:15.182Z,80.70
2017-07-22T06:35:13.834Z,82.00
2017-07-22T06:37:42.123Z,83.70
2017-07-22T06:40:11.211Z,84.10
2017-07-22T06:42:40.304Z,85.50
2017-07-22T06:45:09.358Z,85.40
2017-07-22T06:50:07.979Z,84.50
2017-07-22T06:52:36.251Z,83.60
2017-07-22T06:55:04.583Z,83.60
2017-07-22T06:57:32.882Z,83.90
2017-07-22T07:00:02.300Z,80.10
2017-07-22T07:02:32.115Z,80.40
2017-07-22T07:07:30.683Z,76.40
2017-07-22T07:09:59.032Z,73.80
2017-07-22T07:12:27.322Z,75.50
2017-07-22T07:17:25.532Z,70.30
2017-07-22T07:19:53.806Z,71.00
2017-07-22T07:24:52.401Z,69.30
2017-07-22T07:27:21.443Z,69.70
2017-07-22T07:29:49.716Z,66.50
2017-07-22T07:34:47.535Z,64.10
2017-07-22T07:37:15.807Z,62.60
2017-07-22T07:39:44.160Z,60.60
2017-07-22T07:42:13.962Z,60.00
2017-07-22T07:44:42.246Z,60.30
2017-07-22T07:47:10.583Z,57.00
2017-07-22T07:49:38.862Z,57.80
2017-07-22T07:52:07.139Z,56.50
2017-07-22T07:54:35.454Z,55.80
2017-07-22T07:57:03.727Z,55.90
2017-07-22T07:59:33.509Z,56.20
2017-07-22T08:02:02.380Z,56.70
2017-07-22T08:07:00.159Z,57.20
2017-07-22T08:11:59.503Z,54.90
2017-07-22T08:14:27.787Z,55.60
2017-07-22T08:16:56.098Z,53.60
2017-07-22T08:24:23.804Z,54.80
2017-07-22T08:26:52.067Z,56.00
2017-07-22T08:31:50.770Z,53.90
2017-07-22T08:34:19.043Z,52.80
2017-07-22T08:36:48.822Z,51.40
2017-07-22T08:39:17.498Z,52.60
2017-07-22T08:41:45.773Z,53.00
2017-07-22T08:44:14.819Z,50.70
2017-07-22T08:49:13.067Z,52.30
2017-07-22T08:51:41.346Z,53.60
2017-07-22T08:54:09.678Z,52.90
2017-07-22T08:56:39.471Z,54.20
2017-07-22T09:01:37.715Z,49.10
2017-07-22T09:04:06.011Z,48.70
2017-07-22T09:06:35.083Z,48.90
2017-07-22T09:09:04.163Z,52.20
2017-07-22T09:11:32.431Z,48.40
2017-07-22T09:16:30.646Z,43.40
2017-07-22T09:18:58.944Z,45.40
2017-07-22T09:26:26.670Z,43.00
2017-07-22T09:28:55.711Z,45.60
2017-07-22T09:33:55.059Z,43.40
2017-07-22T09:36:23.332Z,43.30
2017-07-22T09:38:51.678Z,41.90
2017-07-22T09:41:21.454Z,42.00
2017-07-22T09:43:49.729Z,45.10
2017-07-22T09:46:19.562Z,43.20
2017-07-22T09:48:47.834Z,43.90
2017-07-22T09:51:16.107Z,45.10
2017-07-22T09:53:44.450Z,43.20
2017-07-22T09:56:13.134Z,42.20
2017-07-22T09:58:41.419Z,43.20
2017-07-22T10:01:11.263Z,41.60
2017-07-22T10:06:09.455Z,43.50
2017-07-22T10:08:38.594Z,46.00
2017-07-22T10:11:07.631Z,44.80
2017-07-22T10:16:06.958Z,44.90
2017-07-22T10:21:05.119Z,46.60
2017-07-22T10:23:33.454Z,48.40
2017-07-22T10:26:01.727Z,48.50
2017-07-22T10:28:31.506Z,47.40
2017-07-22T10:31:00.943Z,49.50
2017-07-22T10:33:29.989Z,51.10
2017-07-22T10:35:58.268Z,50.00
2017-07-22T10:38:26.594Z,48.30
2017-07-22T10:40:56.372Z,51.80
2017-07-22T10:43:24.646Z,50.00
2017-07-22T10:48:23.243Z,48.90
2017-07-22T10:50:51.514Z,48.20
2017-07-22T10:53:20.742Z,44.10
2017-07-22T10:58:18.899Z,47.20
2017-07-22T11:00:47.210Z,45.30
2017-07-22T11:03:15.482Z,45.90
2017-07-22T11:05:43.766Z,45.40
2017-07-22T11:08:13.233Z,44.80
2017-07-22T11:13:11.419Z,40.90
2017-07-22T11:15:40.139Z,42.10
2017-07-22T11:18:08.425Z,44.20
2017-07-22T11:20:36.695Z,44.10
2017-07-22T11:23:06.562Z,44.80
2017-07-22T11:25:34.835Z,43.30
2017-07-22T11:30:34.170Z,45.90
2017-07-22T11:33:03.211Z,45.20
2017-07-22T11:35:31.486Z,44.70
2017-07-22T11:38:00.591Z,44.30
2017-07-22T11:40:28.886Z,45.30
2017-07-22T11:45:27.558Z,44.60
2017-07-22T11:50:25.334Z,42.80
2017-07-22T11:55:23.248Z,47.00
2017-07-22T11:57:52.407Z,50.20
2017-07-22T12:00:21.898Z,44.40
2017-07-22T12:02:50.605Z,44.40
2017-07-22T12:05:20.412Z,43.10
2017-07-22T12:10:18.898Z,41.50
2017-07-22T12:12:47.170Z,40.60
2017-07-22T12:15:16.283Z,41.30
2017-07-22T12:17:44.570Z,41.50
2017-07-22T12:20:14.362Z,41.20
2017-07-22T12:25:14.678Z,45.70
2017-07-22T12:35:11.949Z,41.50
2017-07-22T12:37:40.294Z,40.40
2017-07-22T12:40:09.712Z,41.40
2017-07-22T12:42:37.982Z,41.00
2017-07-22T12:45:06.298Z,43.90
2017-07-22T12:47:34.571Z,44.50
2017-07-22T12:50:02.847Z,42.70
2017-07-22T12:55:01.097Z,43.60
2017-07-22T12:57:30.148Z,41.70
2017-07-22T13:02:28.711Z,41.00
2017-07-22T13:04:56.984Z,40.20
2017-07-22T13:09:54.810Z,42.00
2017-07-22T13:12:23.087Z,42.40
2017-07-22T13:14:51.432Z,43.70
2017-07-22T13:17:19.707Z,43.20
2017-07-22T13:19:47.984Z,45.30
2017-07-22T13:22:17.442Z,43.10
2017-07-22T13:27:15.991Z,41.30
2017-07-22T13:29:44.357Z,41.40
2017-07-22T13:32:12.647Z,41.40
2017-07-22T13:37:11.991Z,42.20
2017-07-22T13:39:41.056Z,40.80
2017-07-22T13:44:40.443Z,40.60
2017-07-22T13:52:07.849Z,39.80
2017-07-22T13:54:36.885Z,39.90
2017-07-22T13:57:05.154Z,39.00
2017-07-22T13:59:33.475Z,38.60
2017-07-22T14:02:03.252Z,40.00
2017-07-22T14:04:31.531Z,40.90
2017-07-22T14:09:29.627Z,40.90
2017-07-22T14:11:57.920Z,39.70
2017-07-22T14:14:26.763Z,41.20
2017-07-22T14:16:56.547Z,41.90
2017-07-22T14:19:24.819Z,42.40
2017-07-22T14:21:53.932Z,42.70
2017-07-22T14:24:22.203Z,43.70
2017-07-22T14:29:20.415Z,45.40
2017-07-22T14:34:18.616Z,46.90
2017-07-22T14:36:46.932Z,48.50
2017-07-22T14:39:16.705Z,47.20
2017-07-22T14:41:45.759Z,48.10
2017-07-22T14:44:14.098Z,50.90
2017-07-22T14:46:43.525Z,49.60
2017-07-22T14:54:12.023Z,45.40
2017-07-22T14:56:40.333Z,45.70
2017-07-22T14:59:08.672Z,45.10
2017-07-22T15:04:06.471Z,45.10
2017-07-22T15:06:35.957Z,46.10
2017-07-22T15:11:34.498Z,45.00
2017-07-22T15:14:02.819Z,42.70
2017-07-22T15:16:31.094Z,42.30
2017-07-22T15:18:59.370Z,43.50
2017-07-22T15:21:27.717Z,42.60
2017-07-22T15:23:56.762Z,42.40
2017-07-22T15:26:25.798Z,43.20
2017-07-22T15:28:54.119Z,41.50
2017-07-22T15:31:23.527Z,41.40
2017-07-22T15:33:52.198Z,41.00
2017-07-22T15:36:22.043Z,41.80
2017-07-22T15:38:50.312Z,43.50
2017-07-22T15:41:19.459Z,44.20
2017-07-22T15:46:17.662Z,42.90
2017-07-22T15:51:16.271Z,44.00
2017-07-22T15:53:44.551Z,45.20
2017-07-22T15:56:12.821Z,44.70
2017-07-22T15:58:41.155Z,45.10
2017-07-22T16:01:10.572Z,44.50
2017-07-22T16:03:38.901Z,45.20
2017-07-22T16:06:07.219Z,45.70
2017-07-22T16:08:35.495Z,44.80
2017-07-22T16:11:05.277Z,44.00
2017-07-22T16:13:33.619Z,43.40
2017-07-22T16:16:01.890Z,43.70
2017-07-22T16:18:30.197Z,43.10
2017-07-22T16:20:59.303Z,43.70
2017-07-22T16:23:27.595Z,44.20
2017-07-22T16:28:25.823Z,43.90
2017-07-22T16:30:54.098Z,45.70
2017-07-22T16:33:22.370Z,46.20
2017-07-22T16:35:52.224Z,44.60
2017-07-22T16:38:20.490Z,45.00
2017-07-22T16:40:48.764Z,45.10
2017-07-22T16:43:17.083Z,46.10
2017-07-22T16:45:46.859Z,45.70
2017-07-22T16:48:15.142Z,45.40
2017-07-22T16:50:45.006Z,46.30
2017-07-22T16:53:13.285Z,46.40
2017-07-22T16:55:41.571Z,47.00
2017-07-22T16:58:09.930Z,46.80
2017-07-22T17:03:09.128Z,46.30
2017-07-22T17:05:37.468Z,47.80
2017-07-22T17:08:06.511Z,47.80
2017-07-22T17:10:35.551Z,47.10
2017-07-22T17:13:03.874Z,47.00
2017-07-22T17:15:32.142Z,47.20
2017-07-22T17:18:00.423Z,46.80
2017-07-22T17:20:28.770Z,47.70
2017-07-22T17:22:58.201Z,48.30
2017-07-22T17:25:26.471Z,47.20
2017-07-22T17:27:54.826Z,48.00
2017-07-22T17:30:23.099Z,48.90
2017-07-22T17:32:51.375Z,48.00
2017-07-22T17:35:19.691Z,48.20
2017-07-22T17:37:49.471Z,49.20
2017-07-22T17:40:17.748Z,49.80
2017-07-22T17:42:46.082Z,50.10
2017-07-22T17:45:14.359Z,50.40
2017-07-22T17:47:43.403Z,50.80
2017-07-22T17:52:47.617Z,50.00
2017-07-22T17:55:15.934Z,51.60
2017-07-22T17:57:44.613Z,51.20
2017-07-22T18:00:12.895Z,50.80
2017-07-22T18:02:42.032Z,51.20
2017-07-22T18:05:10.307Z,51.10
2017-07-22T18:07:38.594Z,52.60
2017-07-22T18:10:06.947Z,53.20
2017-07-22T18:12:35.219Z,52.20
2017-07-22T18:15:03.491Z,52.20
2017-07-22T18:17:32.978Z,52.60
2017-07-22T18:20:01.243Z,52.30
2017-07-22T18:22:29.543Z,53.00
2017-07-22T18:24:58.627Z,53.60
2017-07-22T18:27:27.299Z,53.60
2017-07-22T18:29:56.347Z,53.30
2017-07-22T18:32:25.428Z,54.40
2017-07-22T18:34:53.699Z,55.10
2017-07-22T18:37:21.980Z,56.10
2017-07-22T18:42:19.795Z,56.20
2017-07-22T18:44:48.070Z,55.40
2017-07-22T18:47:17.154Z,55.80
2017-07-22T18:49:46.194Z,56.30
2017-07-22T18:52:14.481Z,55.00
2017-07-22T18:54:42.827Z,57.60
2017-07-22T18:59:41.419Z,57.70
2017-07-22T19:02:11.271Z,58.80
2017-07-22T19:04:39.571Z,59.10
2017-07-22T19:09:38.945Z,59.40
2017-07-22T19:12:07.219Z,57.90
2017-07-22T19:14:35.491Z,58.80
2017-07-22T19:17:03.834Z,58.70
2017-07-22T19:19:33.243Z,59.60
2017-07-22T19:22:01.510Z,59.70
2017-07-22T19:24:30.602Z,61.10
2017-07-22T19:26:59.657Z,60.60
2017-07-22T19:29:27.941Z,61.20
2017-07-22T19:31:56.271Z,60.30
2017-07-22T19:34:24.538Z,58.90
2017-07-22T19:36:52.815Z,59.70
2017-07-22T19:41:51.051Z,58.60
2017-07-22T19:44:19.328Z,59.30
2017-07-22T19:46:47.658Z,59.50
2017-07-22T19:49:16.335Z,60.10
2017-07-22T19:51:45.031Z,59.40
2017-07-22T19:56:45.282Z,59.60
2017-07-22T19:59:13.567Z,60.30
2017-07-22T20:01:41.923Z,61.20
2017-07-22T20:04:11.353Z,60.90
2017-07-22T20:06:39.654Z,62.20
2017-07-22T20:09:07.987Z,62.20
2017-07-22T20:11:36.262Z,62.50
2017-07-22T20:14:04.930Z,63.50
2017-07-22T20:16:34.397Z,63.40
2017-07-22T20:19:02.672Z,64.10
2017-07-22T20:21:30.951Z,63.70
2017-07-22T20:24:00.807Z,64.70
2017-07-22T20:26:29.083Z,65.20
2017-07-22T20:28:57.356Z,65.90
2017-07-22T20:31:25.694Z,66.00
2017-07-22T20:33:54.739Z,66.80
2017-07-22T20:38:52.954Z,68.80
2017-07-22T20:41:21.234Z,69.50
2017-07-22T20:46:20.202Z,70.40
2017-07-22T20:48:49.239Z,71.10
2017-07-22T20:51:17.515Z,72.40
2017-07-22T20:53:45.856Z,73.50
2017-07-22T20:56:14.133Z,74.50
2017-07-22T20:58:42.419Z,74.40
2017-07-22T21:01:10.772Z,75.20
2017-07-22T21:03:39.073Z,75.10
2017-07-22T21:06:08.858Z,75.80
2017-07-22T21:08:38.334Z,75.90
2017-07-22T21:11:07.374Z,76.20
2017-07-22T21:16:06.696Z,77.20
2017-07-22T21:18:34.975Z,76.70
2017-07-22T21:23:33.198Z,78.20
2017-07-22T21:26:01.471Z,78.30
2017-07-22T21:28:29.752Z,79.00
2017-07-22T21:30:58.104Z,79.50
2017-07-22T21:33:26.374Z,80.70
2017-07-22T21:35:55.419Z,80.90
2017-07-22T21:38:23.759Z,81.30
2017-07-22T21:40:52.038Z,82.00
2017-07-22T21:43:20.310Z,82.20
2017-07-22T21:45:48.636Z,82.90
2017-07-22T21:48:16.906Z,84.10
2017-07-22T21:50:45.192Z,85.40
2017-07-22T21:53:14.310Z,86.10
2017-07-22T21:55:43.355Z,88.40
2017-07-22T21:58:11.638Z,90.00
2017-07-22T22:03:10.668Z,91.30
2017-07-22T22:05:38.938Z,92.00
2017-07-22T22:08:07.266Z,92.80
2017-07-22T22:10:37.044Z,93.10
2017-07-22T22:13:05.323Z,93.30
2017-07-22T22:18:03.551Z,93.90
2017-07-22T22:20:31.828Z,94.10
2017-07-22T22:23:01.654Z,94.30
2017-07-22T22:25:30.707Z,94.80
2017-07-22T22:28:00.494Z,94.50
2017-07-22T22:30:28.817Z,94.60
2017-07-22T22:32:57.095Z,94.80
2017-07-22T22:35:26.130Z,94.80
2017-07-22T22:37:54.487Z,95.60
2017-07-22T22:40:24.267Z,95.50
2017-07-22T22:45:22.875Z,94.90
2017-07-22T22:47:51.154Z,95.10
2017-07-22T22:50:19.454Z,95.10
2017-07-22T22:52:47.762Z,95.50
2017-07-22T22:55:16.038Z,96.00
2017-07-22T22:57:44.359Z,96.50
2017-07-22T23:00:14.203Z,96.80
2017-07-22T23:02:43.624Z,97.30
2017-07-22T23:07:42.263Z,97.70
2017-07-22T23:10:10.551Z,97.70
2017-07-22T23:12:38.867Z,98.20
2017-07-22T23:15:07.949Z,97.90
2017-07-22T23:17:36.982Z,98.20
2017-07-22T23:20:06.060Z,99.00
2017-07-22T23:22:34.358Z,99.40
2017-07-22T23:25:02.634Z,99.60
2017-07-22T23:27:30.939Z,99.30
2017-07-22T23:29:59.254Z,99.90
2017-07-22T23:32:28.671Z,99.90
2017-07-22T23:34:56.974Z,99.80
2017-07-22T23:39:55.174Z,99.90
2017-07-22T23:42:23.494Z,99.90
2017-07-22T23:47:22.062Z,99.40
2017-07-22T23:54:50.534Z,99.30
2017-07-22T23:59:49.875Z,99.30
